createdAt,value
2023-01-15T00:02:50.186Z,82.54
2023-01-15T00:07:52.297Z,82.14
2023-01-15T00:12:53.927Z,82.77
2023-01-15T00:17:55.615Z,82.81
2023-01-15T00:22:57.348Z,82.58
2023-01-15T00:28:01.560Z,83.33
2023-01-15T00:33:03.346Z,83.13
2023-01-15T00:38:04.998Z,83.05
2023-01-15T00:43:06.753Z,83.37
2023-01-15T00:48:09.193Z,83.91
2023-01-15T00:53:10.818Z,84.01
2023-01-15T00:58:12.440Z,83.66
2023-01-15T01:03:14.113Z,83.69
2023-01-15T01:08:16.640Z,83.55
2023-01-15T01:13:18.287Z,83.40
2023-01-15T01:18:20.036Z,84.27
2023-01-15T01:23:24.445Z,84.33
2023-01-15T01:28:26.105Z,84.69
2023-01-15T01:33:27.932Z,84.57
2023-01-15T01:38:29.601Z,84.76
2023-01-15T01:43:31.769Z,84.64
2023-01-15T01:48:34.535Z,84.52
2023-01-15T01:53:36.200Z,84.10
2023-01-15T01:58:38.932Z,84.14
2023-01-15T02:03:40.694Z,84.61
2023-01-15T02:08:43.053Z,84.91
2023-01-15T02:13:57.405Z,84.53
2023-01-15T02:19:36.133Z,84.10
2023-01-15T02:24:49.844Z,84.58
2023-01-15T02:30:04.547Z,84.18
2023-01-15T02:35:13.088Z,84.13
2023-01-15T02:40:16.207Z,84.64
2023-01-15T02:45:24.460Z,84.77
2023-01-15T02:50:32.011Z,85.08
2023-01-15T02:55:43.843Z,85.05
2023-01-15T03:00:49.815Z,85.14
2023-01-15T03:06:00.499Z,85.09
2023-01-15T03:11:10.004Z,84.83
2023-01-15T03:16:38.508Z,84.57
2023-01-15T03:21:59.957Z,85.32
2023-01-15T03:27:02.088Z,84.19
2023-01-15T03:32:04.989Z,84.00
2023-01-15T03:37:06.856Z,84.28
2023-01-15T03:42:20.323Z,84.91
2023-01-15T03:47:42.547Z,83.98
2023-01-15T03:53:02.834Z,84.61
2023-01-15T03:58:16.248Z,84.29
2023-01-15T04:03:20.641Z,84.85
2023-01-15T04:08:23.411Z,83.84
2023-01-15T04:13:25.668Z,83.89
2023-01-15T04:18:27.833Z,83.78
2023-01-15T04:23:29.494Z,84.33
2023-01-15T04:28:31.201Z,84.05
2023-01-15T04:33:32.916Z,84.33
2023-01-15T04:38:34.997Z,85.31
2023-01-15T04:43:55.300Z,84.45
2023-01-15T04:48:56.970Z,85.69
2023-01-15T04:53:59.416Z,85.50
2023-01-15T04:59:02.765Z,85.63
2023-01-15T05:04:05.051Z,85.27
2023-01-15T05:09:07.237Z,85.41
2023-01-15T05:14:09.406Z,85.24
2023-01-15T05:19:11.165Z,84.79
2023-01-15T05:24:17.720Z,84.85
2023-01-15T05:29:19.430Z,84.42
2023-01-15T05:34:21.156Z,84.01
2023-01-15T05:39:22.825Z,84.07
2023-01-15T05:44:27.154Z,84.53
2023-01-15T05:49:32.855Z,84.50
2023-01-15T05:54:35.919Z,84.81
2023-01-15T05:59:43.436Z,84.00
2023-01-15T06:04:50.075Z,85.50
2023-01-15T06:09:52.240Z,84.44
2023-01-15T06:14:53.925Z,85.24
2023-01-15T06:19:55.622Z,85.00
2023-01-15T06:24:57.293Z,84.96
2023-01-15T06:29:59.146Z,85.09
2023-01-15T06:35:00.779Z,84.90
2023-01-15T06:40:02.478Z,85.33
2023-01-15T06:45:26.047Z,86.17
2023-01-15T06:50:28.337Z,85.41
2023-01-15T06:55:30.078Z,85.41
2023-01-15T07:00:31.919Z,85.44
2023-01-15T07:05:33.676Z,85.23
2023-01-15T07:10:36.304Z,85.89
2023-01-15T07:15:39.819Z,86.04
2023-01-15T07:20:42.133Z,86.85
2023-01-15T07:25:43.804Z,85.54
2023-01-15T07:30:45.986Z,85.96
2023-01-15T07:35:47.744Z,86.18
2023-01-15T07:41:09.763Z,86.47
2023-01-15T07:46:30.326Z,86.34
2023-01-15T07:51:31.992Z,87.03
2023-01-15T07:56:33.724Z,85.88
2023-01-15T08:01:35.454Z,88.94
2023-01-15T08:06:37.650Z,88.54
2023-01-15T08:11:58.178Z,87.12
2023-01-15T08:16:59.880Z,87.32
2023-01-15T08:22:01.953Z,87.95
2023-01-15T08:27:04.187Z,88.06
2023-01-15T08:32:06.106Z,87.82
2023-01-15T08:37:07.930Z,88.29
2023-01-15T08:42:09.765Z,88.45
2023-01-15T08:47:11.441Z,89.60
2023-01-15T08:52:13.289Z,88.54
2023-01-15T08:57:14.948Z,88.09
2023-01-15T09:02:17.807Z,88.36
2023-01-15T09:07:19.615Z,88.03
2023-01-15T09:12:24.901Z,88.25
2023-01-15T09:17:26.669Z,88.76
2023-01-15T09:22:31.238Z,88.67
2023-01-15T09:27:34.465Z,88.28
2023-01-15T09:32:36.113Z,89.15
2023-01-15T09:37:37.856Z,89.67
2023-01-15T09:42:46.216Z,88.18
2023-01-15T09:48:32.305Z,88.07
2023-01-15T09:53:46.221Z,88.12
2023-01-15T09:58:48.067Z,88.38
2023-01-15T10:04:31.362Z,87.83
2023-01-15T10:09:37.781Z,88.49
2023-01-15T10:15:02.405Z,88.32
2023-01-15T10:20:04.380Z,88.52
2023-01-15T10:25:14.985Z,88.40
2023-01-15T10:30:22.710Z,89.19
2023-01-15T10:35:27.166Z,88.70
2023-01-15T10:40:58.100Z,88.43
2023-01-15T10:46:11.889Z,87.87
2023-01-15T10:51:28.902Z,86.83
2023-01-15T10:56:49.091Z,87.35
2023-01-15T11:01:54.275Z,87.16
2023-01-15T11:06:56.128Z,86.62
2023-01-15T11:12:20.528Z,85.86
2023-01-15T11:17:43.292Z,86.25
2023-01-15T11:22:45.343Z,85.94
2023-01-15T11:27:49.896Z,86.63
2023-01-15T11:32:57.009Z,85.46
2023-01-15T11:38:13.629Z,86.44
2023-01-15T11:43:38.258Z,85.98
2023-01-15T11:49:06.476Z,86.19
2023-01-15T11:54:12.500Z,85.08
2023-01-15T11:59:19.921Z,83.86
2023-01-15T12:04:34.783Z,84.31
2023-01-15T12:09:45.451Z,85.24
2023-01-15T12:15:06.944Z,85.08
2023-01-15T12:20:37.975Z,85.79
2023-01-15T12:26:17.836Z,85.12
2023-01-15T12:32:07.401Z,86.29
2023-01-15T12:37:21.229Z,86.67
2023-01-15T12:42:44.076Z,85.63
2023-01-15T12:48:07.069Z,86.24
2023-01-15T12:53:11.822Z,86.51
2023-01-15T12:58:36.520Z,86.31
2023-01-15T13:03:51.580Z,86.42
2023-01-15T13:09:03.423Z,84.71
2023-01-15T13:14:16.693Z,86.56
2023-01-15T13:19:27.554Z,86.67
2023-01-15T13:24:56.470Z,87.14
2023-01-15T13:30:19.813Z,88.01
2023-01-15T13:35:36.242Z,88.32
2023-01-15T13:40:50.717Z,88.05
2023-01-15T13:45:52.662Z,88.83
2023-01-15T13:50:58.993Z,88.38
2023-01-15T13:56:06.212Z,89.21
2023-01-15T14:01:23.135Z,89.12
2023-01-15T14:06:45.801Z,89.14
2023-01-15T14:12:08.135Z,89.80
2023-01-15T14:17:31.676Z,89.68
2023-01-15T14:22:55.531Z,90.34
2023-01-15T14:28:02.578Z,90.60
2023-01-15T14:33:19.491Z,90.22
2023-01-15T14:38:27.093Z,90.84
2023-01-15T14:43:33.531Z,90.60
2023-01-15T14:48:39.428Z,91.23
2023-01-15T14:53:48.903Z,91.22
2023-01-15T14:59:08.610Z,91.12
2023-01-15T15:04:40.827Z,91.32
2023-01-15T15:09:46.712Z,91.73
2023-01-15T15:15:27.241Z,91.15
2023-01-15T15:20:33.378Z,91.23
2023-01-15T15:25:39.588Z,91.05
2023-01-15T15:30:45.590Z,91.09
2023-01-15T15:35:52.492Z,91.10
2023-01-15T15:40:59.240Z,91.53
2023-01-15T15:46:39.406Z,91.54
2023-01-15T15:51:49.127Z,90.86
2023-01-15T15:56:58.126Z,92.08
2023-01-15T16:02:36.486Z,92.09
2023-01-15T16:07:38.583Z,92.23
2023-01-15T16:13:09.981Z,92.54
2023-01-15T16:18:41.250Z,92.58
2023-01-15T16:23:46.603Z,92.93
2023-01-15T16:28:56.100Z,93.09
2023-01-15T16:33:59.897Z,93.28
2023-01-15T16:39:03.276Z,93.38
2023-01-15T16:44:07.794Z,93.50
2023-01-15T16:49:22.514Z,93.72
2023-01-15T16:54:31.169Z,93.80
2023-01-15T16:59:34.461Z,93.42
2023-01-15T17:04:41.476Z,94.10
2023-01-15T17:10:01.548Z,94.43
2023-01-15T17:15:15.997Z,94.04
2023-01-15T17:20:20.565Z,93.92
2023-01-15T17:25:24.340Z,94.18
2023-01-15T17:30:35.177Z,94.48
2023-01-15T17:35:41.653Z,93.96
2023-01-15T17:40:44.632Z,93.92
2023-01-15T17:45:47.627Z,93.87
2023-01-15T17:50:51.471Z,93.47
2023-01-15T17:56:12.172Z,93.11
2023-01-15T18:01:40.113Z,92.14
2023-01-15T18:06:48.790Z,91.58
2023-01-15T18:11:54.049Z,91.92
2023-01-15T18:16:56.652Z,92.62
2023-01-15T18:22:01.178Z,92.84
2023-01-15T18:27:04.458Z,93.30
2023-01-15T18:32:10.052Z,93.98
2023-01-15T18:37:13.778Z,95.03
2023-01-15T18:42:16.402Z,95.54
2023-01-15T18:47:18.928Z,95.80
2023-01-15T18:52:40.497Z,97.12
2023-01-15T18:57:43.826Z,97.76
2023-01-15T19:02:47.594Z,98.16
2023-01-15T19:07:50.395Z,97.92
2023-01-15T19:12:52.548Z,97.79
2023-01-15T19:18:13.747Z,97.63
2023-01-15T19:23:17.286Z,97.68
2023-01-15T19:28:21.881Z,98.39
2023-01-15T19:33:24.978Z,98.67
2023-01-15T19:38:29.604Z,98.87
2023-01-15T19:43:50.525Z,98.55
2023-01-15T19:49:11.379Z,99.61
2023-01-15T19:54:13.912Z,99.15
2023-01-15T19:59:16.594Z,99.12
2023-01-15T20:04:19.231Z,99.03
2023-01-15T20:09:22.057Z,99.68
2023-01-15T20:14:24.660Z,99.66
2023-01-15T20:19:27.308Z,99.50
2023-01-15T20:24:30.033Z,100.00
2023-01-15T20:29:32.697Z,100.00
2023-01-15T20:34:41.939Z,100.00
2023-01-15T20:39:44.770Z,100.00
2023-01-15T20:44:56.695Z,100.00
2023-01-15T20:49:59.081Z,100.00
2023-01-15T20:55:02.373Z,100.00
2023-01-15T21:00:06.175Z,100.00
2023-01-15T21:05:08.685Z,100.00
2023-01-15T21:10:14.317Z,100.00
2023-01-15T21:15:16.654Z,100.00
2023-01-15T21:20:18.414Z,100.00
2023-01-15T21:25:20.459Z,100.00
2023-01-15T21:30:26.046Z,100.00
2023-01-15T21:35:27.987Z,100.00
2023-01-15T21:40:29.675Z,100.00
2023-01-15T21:45:31.987Z,100.00
2023-01-15T21:50:33.862Z,100.00
2023-01-15T21:55:35.534Z,100.00
2023-01-15T22:00:37.884Z,100.00
2023-01-15T22:05:39.581Z,100.00
2023-01-15T22:10:41.208Z,100.00
2023-01-15T22:15:42.801Z,100.00
2023-01-15T22:20:45.428Z,100.00
2023-01-15T22:25:47.225Z,100.00
2023-01-15T22:30:48.974Z,100.00
2023-01-15T22:35:58.750Z,100.00
2023-01-15T22:41:00.392Z,100.00
2023-01-15T22:46:13.171Z,100.00
2023-01-15T22:51:14.883Z,100.00
2023-01-15T22:56:16.543Z,100.00
2023-01-15T23:01:18.631Z,100.00
2023-01-15T23:06:22.905Z,100.00
2023-01-15T23:11:25.070Z,100.00
2023-01-15T23:16:26.717Z,100.00
2023-01-15T23:21:28.631Z,100.00
2023-01-15T23:26:32.265Z,100.00
2023-01-15T23:31:34.180Z,100.00
2023-01-15T23:36:35.836Z,100.00
2023-01-15T23:41:56.181Z,100.00
2023-01-15T23:46:57.832Z,100.00
2023-01-15T23:52:00.164Z,100.00
2023-01-15T23:57:01.934Z,100.00
